TAF Text Data
IDs:
Format:
Raw Decoded Include METAR

Data at: 0850 UTC 23 Sep 2018

METAR for:KDSM (Des Moines Intl, IA, US)
Text:KDSM 230754Z 15003KT 10SM CLR 13/09 A3010 RMK AO2 SLP189 T01280094
Temperature: 12.8°C ( 55°F)
Dewpoint: 9.4°C ( 49°F) [RH = 80%]
Pressure (altimeter):30.10 inches Hg (1019.4 mb) [Sea level pressure: 1018.9 mb]
Winds:from the SSE (150 degrees) at 3 MPH (3 knots; 1.5 m/s)
Visibility:10 or more sm (16+ km)
Ceiling:at least 12,000 feet AGL
Clouds:sky clear below 12,000 feet AGL

TAF for:KDSM (Des Moines Intl, IA, US) issued at 0520 UTC 23 Sep 2018
Text:KDSM 230520Z 2306/2406 15005KT P6SM SKC
Forecast period:0600 to 1700 UTC 23 September 2018
Forecast type:FROM: standard forecast or significant change
Winds:from the SSE (150 degrees) at 6 MPH (5 knots; 2.6 m/s)
Visibility:6 or more sm (10+ km)
Ceiling:at least 12,000 feet AGL
Clouds:clear skies
Text:FM231700 16013KT P6SM SKC
Forecast period:1700 UTC 23 September 2018 to 0600 UTC 24 September 2018
Forecast type:FROM: standard forecast or significant change
Winds:from the SSE (160 degrees) at 15 MPH (13 knots; 6.7 m/s)
Visibility:6 or more sm (10+ km)
Ceiling:at least 12,000 feet AGL
Clouds:clear skies